sensor_id;sensor_type;location;lat;lon;timestamp;temperature;humidity
17154;DHT22;8692;52.164;7.558;2022-09-29T00:02:18;8.60;99.90
17154;DHT22;8692;52.164;7.558;2022-09-29T00:04:48;8.50;99.90
17154;DHT22;8692;52.164;7.558;2022-09-29T00:07:16;8.50;99.90
17154;DHT22;8692;52.164;7.558;2022-09-29T00:09:44;8.50;99.90
17154;DHT22;8692;52.164;7.558;2022-09-29T00:12:12;8.50;99.90
17154;DHT22;8692;52.164;7.558;2022-09-29T00:14:42;8.50;99.90
17154;DHT22;8692;52.164;7.558;2022-09-29T00:17:15;8.50;99.90
17154;DHT22;8692;52.164;7.558;2022-09-29T00:19:43;8.50;99.90
17154;DHT22;8692;52.164;7.558;2022-09-29T00:22:11;8.50;99.90
17154;DHT22;8692;52.164;7.558;2022-09-29T00:24:39;8.60;99.90
17154;DHT22;8692;52.164;7.558;2022-09-29T00:27:08;8.60;99.90
17154;DHT22;8692;52.164;7.558;2022-09-29T00:29:36;8.60;99.90
17154;DHT22;8692;52.164;7.558;2022-09-29T00:32:04;8.60;99.90
17154;DHT22;8692;52.164;7.558;2022-09-29T00:34:36;8.60;99.90
17154;DHT22;8692;52.164;7.558;2022-09-29T00:37:04;8.60;99.90
17154;DHT22;8692;52.164;7.558;2022-09-29T00:39:34;8.60;99.90
17154;DHT22;8692;52.164;7.558;2022-09-29T00:42:05;8.60;99.90
17154;DHT22;8692;52.164;7.558;2022-09-29T00:44:56;8.70;99.90
17154;DHT22;8692;52.164;7.558;2022-09-29T00:47:26;8.60;99.90
17154;DHT22;8692;52.164;7.558;2022-09-29T00:50:00;8.60;99.90
17154;DHT22;8692;52.164;7.558;2022-09-29T00:52:31;8.60;99.90
17154;DHT22;8692;52.164;7.558;2022-09-29T00:55:06;8.60;99.90
17154;DHT22;8692;52.164;7.558;2022-09-29T00:57:43;8.60;99.90
17154;DHT22;8692;52.164;7.558;2022-09-29T01:00:14;8.60;99.90
17154;DHT22;8692;52.164;7.558;2022-09-29T01:02:45;8.60;99.90
17154;DHT22;8692;52.164;7.558;2022-09-29T01:05:22;8.60;99.90
17154;DHT22;8692;52.164;7.558;2022-09-29T01:07:52;8.60;99.90
17154;DHT22;8692;52.164;7.558;2022-09-29T01:10:20;8.60;99.90
17154;DHT22;8692;52.164;7.558;2022-09-29T01:12:51;8.60;99.90
17154;DHT22;8692;52.164;7.558;2022-09-29T01:15:20;8.60;99.90
17154;DHT22;8692;52.164;7.558;2022-09-29T01:17:51;8.60;99.90
17154;DHT22;8692;52.164;7.558;2022-09-29T01:20:21;8.60;99.90
17154;DHT22;8692;52.164;7.558;2022-09-29T01:29:12;8.60;99.90
17154;DHT22;8692;52.164;7.558;2022-09-29T01:31:48;8.60;99.90
17154;DHT22;8692;52.164;7.558;2022-09-29T01:34:24;8.60;99.90
17154;DHT22;8692;52.164;7.558;2022-09-29T01:37:02;8.50;99.90
17154;DHT22;8692;52.164;7.558;2022-09-29T01:39:38;8.50;99.90
17154;DHT22;8692;52.164;7.558;2022-09-29T01:42:15;8.50;99.90
17154;DHT22;8692;52.164;7.558;2022-09-29T01:44:47;8.50;99.90
17154;DHT22;8692;52.164;7.558;2022-09-29T01:47:21;8.50;99.90
17154;DHT22;8692;52.164;7.558;2022-09-29T01:49:57;8.50;99.90
17154;DHT22;8692;52.164;7.558;2022-09-29T01:52:28;8.50;99.90
17154;DHT22;8692;52.164;7.558;2022-09-29T01:55:01;8.50;99.90
17154;DHT22;8692;52.164;7.558;2022-09-29T01:57:33;8.50;99.90
17154;DHT22;8692;52.164;7.558;2022-09-29T02:00:05;8.50;99.90
17154;DHT22;8692;52.164;7.558;2022-09-29T02:02:46;8.50;99.90
17154;DHT22;8692;52.164;7.558;2022-09-29T02:05:22;8.50;99.90
17154;DHT22;8692;52.164;7.558;2022-09-29T02:07:56;8.40;99.90
17154;DHT22;8692;52.164;7.558;2022-09-29T02:10:32;8.40;99.90
17154;DHT22;8692;52.164;7.558;2022-09-29T02:13:05;8.40;99.90
17154;DHT22;8692;52.164;7.558;2022-09-29T02:15:38;8.40;99.90
17154;DHT22;8692;52.164;7.558;2022-09-29T02:18:12;8.40;99.90
17154;DHT22;8692;52.164;7.558;2022-09-29T02:20:41;8.30;99.90
17154;DHT22;8692;52.164;7.558;2022-09-29T02:23:09;8.30;99.90
17154;DHT22;8692;52.164;7.558;2022-09-29T02:25:39;8.30;99.90
17154;DHT22;8692;52.164;7.558;2022-09-29T02:28:07;8.30;99.90
17154;DHT22;8692;52.164;7.558;2022-09-29T02:30:38;8.20;99.90
17154;DHT22;8692;52.164;7.558;2022-09-29T02:33:17;8.20;99.90
17154;DHT22;8692;52.164;7.558;2022-09-29T02:35:57;8.20;99.90
17154;DHT22;8692;52.164;7.558;2022-09-29T02:38:38;8.20;99.90
17154;DHT22;8692;52.164;7.558;2022-09-29T02:41:20;8.10;99.90
17154;DHT22;8692;52.164;7.558;2022-09-29T02:44:10;8.10;99.90
17154;DHT22;8692;52.164;7.558;2022-09-29T02:47:00;8.00;99.90
17154;DHT22;8692;52.164;7.558;2022-09-29T02:49:57;8.00;99.90
17154;DHT22;8692;52.164;7.558;2022-09-29T02:52:43;8.00;99.90
17154;DHT22;8692;52.164;7.558;2022-09-29T02:55:18;7.90;99.90
17154;DHT22;8692;52.164;7.558;2022-09-29T02:57:51;7.90;99.90
17154;DHT22;8692;52.164;7.558;2022-09-29T03:00:20;7.90;99.90
17154;DHT22;8692;52.164;7.558;2022-09-29T03:02:49;7.90;99.90
17154;DHT22;8692;52.164;7.558;2022-09-29T03:05:20;7.80;99.90
17154;DHT22;8692;52.164;7.558;2022-09-29T03:07:51;7.80;99.90
17154;DHT22;8692;52.164;7.558;2022-09-29T03:10:19;7.80;99.90
17154;DHT22;8692;52.164;7.558;2022-09-29T03:12:47;7.70;99.90
17154;DHT22;8692;52.164;7.558;2022-09-29T03:15:15;7.70;99.90
17154;DHT22;8692;52.164;7.558;2022-09-29T03:17:46;7.70;99.90
17154;DHT22;8692;52.164;7.558;2022-09-29T03:20:14;7.70;99.90
17154;DHT22;8692;52.164;7.558;2022-09-29T03:22:45;7.70;99.90
17154;DHT22;8692;52.164;7.558;2022-09-29T03:25:14;7.60;99.90
17154;DHT22;8692;52.164;7.558;2022-09-29T03:27:42;7.60;99.90
17154;DHT22;8692;52.164;7.558;2022-09-29T03:30:12;7.50;99.90
17154;DHT22;8692;52.164;7.558;2022-09-29T03:32:43;7.50;99.90
17154;DHT22;8692;52.164;7.558;2022-09-29T03:35:11;7.50;99.90
17154;DHT22;8692;52.164;7.558;2022-09-29T03:37:39;7.50;99.90
17154;DHT22;8692;52.164;7.558;2022-09-29T03:40:10;7.40;99.90
17154;DHT22;8692;52.164;7.558;2022-09-29T03:42:38;7.40;99.90
17154;DHT22;8692;52.164;7.558;2022-09-29T03:45:06;7.40;99.90
17154;DHT22;8692;52.164;7.558;2022-09-29T03:47:37;7.40;99.90
17154;DHT22;8692;52.164;7.558;2022-09-29T03:50:06;7.30;99.90
17154;DHT22;8692;52.164;7.558;2022-09-29T03:52:34;7.30;99.90
17154;DHT22;8692;52.164;7.558;2022-09-29T03:55:04;7.30;99.90
17154;DHT22;8692;52.164;7.558;2022-09-29T03:57:33;7.30;99.90
17154;DHT22;8692;52.164;7.558;2022-09-29T04:00:04;7.30;99.90
17154;DHT22;8692;52.164;7.558;2022-09-29T04:02:33;7.20;99.90
17154;DHT22;8692;52.164;7.558;2022-09-29T04:05:02;7.20;99.90
17154;DHT22;8692;52.164;7.558;2022-09-29T04:07:31;7.20;99.90
17154;DHT22;8692;52.164;7.558;2022-09-29T04:09:59;7.10;99.90
17154;DHT22;8692;52.164;7.558;2022-09-29T04:12:27;7.10;99.90
17154;DHT22;8692;52.164;7.558;2022-09-29T04:14:59;7.10;99.90
17154;DHT22;8692;52.164;7.558;2022-09-29T04:17:27;7.10;99.90
17154;DHT22;8692;52.164;7.558;2022-09-29T04:19:58;7.10;99.90
17154;DHT22;8692;52.164;7.558;2022-09-29T04:22:26;7.10;99.90
17154;DHT22;8692;52.164;7.558;2022-09-29T04:24:54;7.10;99.90
17154;DHT22;8692;52.164;7.558;2022-09-29T04:27:23;7.10;99.90
17154;DHT22;8692;52.164;7.558;2022-09-29T04:29:51;7.10;99.90
17154;DHT22;8692;52.164;7.558;2022-09-29T04:32:20;7.10;99.90
17154;DHT22;8692;52.164;7.558;2022-09-29T04:34:49;7.10;99.90
17154;DHT22;8692;52.164;7.558;2022-09-29T04:37:17;7.10;99.90
17154;DHT22;8692;52.164;7.558;2022-09-29T04:39:45;7.10;99.90
17154;DHT22;8692;52.164;7.558;2022-09-29T04:42:13;7.10;99.90
17154;DHT22;8692;52.164;7.558;2022-09-29T04:44:41;7.10;99.90
17154;DHT22;8692;52.164;7.558;2022-09-29T04:47:10;7.00;99.90
17154;DHT22;8692;52.164;7.558;2022-09-29T04:49:39;7.00;99.90
17154;DHT22;8692;52.164;7.558;2022-09-29T04:52:09;7.00;99.90
17154;DHT22;8692;52.164;7.558;2022-09-29T04:54:38;7.00;99.90
17154;DHT22;8692;52.164;7.558;2022-09-29T04:57:06;7.00;99.90
17154;DHT22;8692;52.164;7.558;2022-09-29T04:59:35;7.00;99.90
17154;DHT22;8692;52.164;7.558;2022-09-29T05:02:03;7.00;99.90
17154;DHT22;8692;52.164;7.558;2022-09-29T05:04:31;7.00;99.90
17154;DHT22;8692;52.164;7.558;2022-09-29T05:07:03;7.00;99.90
17154;DHT22;8692;52.164;7.558;2022-09-29T05:09:31;7.00;99.90
17154;DHT22;8692;52.164;7.558;2022-09-29T05:12:00;6.90;99.90
17154;DHT22;8692;52.164;7.558;2022-09-29T05:14:31;6.90;99.90
17154;DHT22;8692;52.164;7.558;2022-09-29T05:17:00;6.90;99.90
17154;DHT22;8692;52.164;7.558;2022-09-29T05:19:31;6.90;99.90
17154;DHT22;8692;52.164;7.558;2022-09-29T05:21:59;6.90;99.90
17154;DHT22;8692;52.164;7.558;2022-09-29T05:24:29;6.90;99.90
17154;DHT22;8692;52.164;7.558;2022-09-29T05:26:57;7.00;99.90
17154;DHT22;8692;52.164;7.558;2022-09-29T05:29:25;7.00;99.90
17154;DHT22;8692;52.164;7.558;2022-09-29T05:31:55;6.90;99.90
17154;DHT22;8692;52.164;7.558;2022-09-29T05:34:24;6.90;99.90
17154;DHT22;8692;52.164;7.558;2022-09-29T05:36:54;7.00;99.90
17154;DHT22;8692;52.164;7.558;2022-09-29T05:39:22;6.90;99.90
17154;DHT22;8692;52.164;7.558;2022-09-29T05:41:52;6.90;99.90
17154;DHT22;8692;52.164;7.558;2022-09-29T05:44:25;6.90;99.90
17154;DHT22;8692;52.164;7.558;2022-09-29T05:46:53;7.00;99.90
17154;DHT22;8692;52.164;7.558;2022-09-29T05:49:21;7.00;99.90
17154;DHT22;8692;52.164;7.558;2022-09-29T05:51:49;7.00;99.90
17154;DHT22;8692;52.164;7.558;2022-09-29T05:54:18;7.00;99.90
17154;DHT22;8692;52.164;7.558;2022-09-29T05:56:46;7.10;99.90
17154;DHT22;8692;52.164;7.558;2022-09-29T05:59:18;7.00;99.90
17154;DHT22;8692;52.164;7.558;2022-09-29T06:01:49;7.10;99.90
17154;DHT22;8692;52.164;7.558;2022-09-29T06:04:17;7.10;99.90
17154;DHT22;8692;52.164;7.558;2022-09-29T06:06:45;7.10;99.90
17154;DHT22;8692;52.164;7.558;2022-09-29T06:09:14;7.10;99.90
17154;DHT22;8692;52.164;7.558;2022-09-29T06:11:44;7.10;99.90
17154;DHT22;8692;52.164;7.558;2022-09-29T06:14:15;7.10;99.90
17154;DHT22;8692;52.164;7.558;2022-09-29T06:16:44;7.10;99.90
17154;DHT22;8692;52.164;7.558;2022-09-29T06:19:15;7.20;99.90
17154;DHT22;8692;52.164;7.558;2022-09-29T06:21:43;7.10;99.90
17154;DHT22;8692;52.164;7.558;2022-09-29T06:24:11;7.20;99.90
17154;DHT22;8692;52.164;7.558;2022-09-29T06:26:39;7.20;99.90
17154;DHT22;8692;52.164;7.558;2022-09-29T06:29:10;7.20;99.90
17154;DHT22;8692;52.164;7.558;2022-09-29T06:31:40;7.20;99.90
17154;DHT22;8692;52.164;7.558;2022-09-29T06:34:12;7.30;99.90
17154;DHT22;8692;52.164;7.558;2022-09-29T06:36:42;7.30;99.90
17154;DHT22;8692;52.164;7.558;2022-09-29T06:39:28;7.40;99.90
17154;DHT22;8692;52.164;7.558;2022-09-29T06:41:57;7.40;99.90
17154;DHT22;8692;52.164;7.558;2022-09-29T06:44:26;7.40;99.90
17154;DHT22;8692;52.164;7.558;2022-09-29T06:46:56;7.40;99.90
17154;DHT22;8692;52.164;7.558;2022-09-29T06:49:26;7.40;99.90
17154;DHT22;8692;52.164;7.558;2022-09-29T06:51:56;7.50;99.90
17154;DHT22;8692;52.164;7.558;2022-09-29T06:54:25;7.50;99.90
17154;DHT22;8692;52.164;7.558;2022-09-29T06:56:54;7.50;99.90
17154;DHT22;8692;52.164;7.558;2022-09-29T06:59:22;7.60;99.90
17154;DHT22;8692;52.164;7.558;2022-09-29T07:01:50;7.60;99.90
17154;DHT22;8692;52.164;7.558;2022-09-29T07:04:19;7.60;99.90
17154;DHT22;8692;52.164;7.558;2022-09-29T07:06:52;7.60;99.90
17154;DHT22;8692;52.164;7.558;2022-09-29T07:09:20;7.70;99.90
17154;DHT22;8692;52.164;7.558;2022-09-29T07:11:50;7.60;99.90
17154;DHT22;8692;52.164;7.558;2022-09-29T07:14:19;7.70;99.90
17154;DHT22;8692;52.164;7.558;2022-09-29T07:16:52;7.70;99.90
17154;DHT22;8692;52.164;7.558;2022-09-29T07:19:23;7.70;99.90
17154;DHT22;8692;52.164;7.558;2022-09-29T07:21:53;7.80;99.90
17154;DHT22;8692;52.164;7.558;2022-09-29T07:24:21;7.80;99.90
17154;DHT22;8692;52.164;7.558;2022-09-29T07:26:50;7.80;99.90
17154;DHT22;8692;52.164;7.558;2022-09-29T07:29:21;7.90;99.90
17154;DHT22;8692;52.164;7.558;2022-09-29T07:31:49;7.90;99.90
17154;DHT22;8692;52.164;7.558;2022-09-29T07:34:19;7.90;99.90
17154;DHT22;8692;52.164;7.558;2022-09-29T07:36:50;8.00;99.90
17154;DHT22;8692;52.164;7.558;2022-09-29T07:39:21;8.10;99.90
17154;DHT22;8692;52.164;7.558;2022-09-29T07:41:49;8.10;99.90
17154;DHT22;8692;52.164;7.558;2022-09-29T07:44:18;8.20;99.90
17154;DHT22;8692;52.164;7.558;2022-09-29T07:46:49;8.20;99.90
17154;DHT22;8692;52.164;7.558;2022-09-29T07:49:19;8.20;99.90
17154;DHT22;8692;52.164;7.558;2022-09-29T07:51:49;8.30;99.90
17154;DHT22;8692;52.164;7.558;2022-09-29T07:54:18;8.30;99.90
17154;DHT22;8692;52.164;7.558;2022-09-29T07:56:50;8.30;99.90
17154;DHT22;8692;52.164;7.558;2022-09-29T07:59:21;8.30;99.90
17154;DHT22;8692;52.164;7.558;2022-09-29T08:01:51;8.40;99.90
17154;DHT22;8692;52.164;7.558;2022-09-29T08:04:19;8.40;99.90
17154;DHT22;8692;52.164;7.558;2022-09-29T08:06:47;8.40;99.90
17154;DHT22;8692;52.164;7.558;2022-09-29T08:09:16;8.50;99.90
17154;DHT22;8692;52.164;7.558;2022-09-29T08:11:44;8.50;99.90
17154;DHT22;8692;52.164;7.558;2022-09-29T08:14:16;8.60;99.90
17154;DHT22;8692;52.164;7.558;2022-09-29T08:16:45;8.60;99.90
17154;DHT22;8692;52.164;7.558;2022-09-29T08:19:15;8.60;99.90
17154;DHT22;8692;52.164;7.558;2022-09-29T08:21:46;8.70;99.90
17154;DHT22;8692;52.164;7.558;2022-09-29T08:24:15;8.70;99.90
17154;DHT22;8692;52.164;7.558;2022-09-29T08:26:47;8.80;99.90
17154;DHT22;8692;52.164;7.558;2022-09-29T08:29:16;8.80;99.90
17154;DHT22;8692;52.164;7.558;2022-09-29T08:31:45;8.90;99.90
17154;DHT22;8692;52.164;7.558;2022-09-29T08:34:13;8.90;99.90
17154;DHT22;8692;52.164;7.558;2022-09-29T08:36:42;8.90;99.90
17154;DHT22;8692;52.164;7.558;2022-09-29T08:39:10;9.00;99.90
17154;DHT22;8692;52.164;7.558;2022-09-29T08:41:49;9.00;99.90
17154;DHT22;8692;52.164;7.558;2022-09-29T08:44:27;9.00;99.90
17154;DHT22;8692;52.164;7.558;2022-09-29T08:47:15;9.10;99.90
17154;DHT22;8692;52.164;7.558;2022-09-29T08:49:51;9.10;99.90
17154;DHT22;8692;52.164;7.558;2022-09-29T08:52:25;9.20;99.90
17154;DHT22;8692;52.164;7.558;2022-09-29T08:54:59;9.20;99.90
17154;DHT22;8692;52.164;7.558;2022-09-29T08:57:45;9.30;99.90
17154;DHT22;8692;52.164;7.558;2022-09-29T09:00:19;9.30;99.90
17154;DHT22;8692;52.164;7.558;2022-09-29T09:03:01;9.40;99.90
17154;DHT22;8692;52.164;7.558;2022-09-29T09:05:51;9.40;99.90
17154;DHT22;8692;52.164;7.558;2022-09-29T09:08:35;9.60;99.90
17154;DHT22;8692;52.164;7.558;2022-09-29T09:11:20;9.70;99.90
17154;DHT22;8692;52.164;7.558;2022-09-29T09:13:59;9.90;99.90
17154;DHT22;8692;52.164;7.558;2022-09-29T09:16:42;10.00;99.90
17154;DHT22;8692;52.164;7.558;2022-09-29T09:19:39;10.10;99.90
17154;DHT22;8692;52.164;7.558;2022-09-29T09:22:32;10.10;99.90
17154;DHT22;8692;52.164;7.558;2022-09-29T09:25:18;10.20;99.90
17154;DHT22;8692;52.164;7.558;2022-09-29T09:27:58;10.30;99.90
17154;DHT22;8692;52.164;7.558;2022-09-29T09:30:37;10.40;99.90
17154;DHT22;8692;52.164;7.558;2022-09-29T09:33:14;10.60;99.90
17154;DHT22;8692;52.164;7.558;2022-09-29T09:36:00;10.70;99.90
17154;DHT22;8692;52.164;7.558;2022-09-29T09:38:43;10.80;99.90
17154;DHT22;8692;52.164;7.558;2022-09-29T09:41:14;10.90;99.90
17154;DHT22;8692;52.164;7.558;2022-09-29T09:43:46;11.00;99.90
17154;DHT22;8692;52.164;7.558;2022-09-29T09:46:20;11.20;99.90
17154;DHT22;8692;52.164;7.558;2022-09-29T09:48:59;11.30;99.90
17154;DHT22;8692;52.164;7.558;2022-09-29T09:51:35;11.40;99.90
17154;DHT22;8692;52.164;7.558;2022-09-29T09:54:12;11.60;99.90
17154;DHT22;8692;52.164;7.558;2022-09-29T09:56:52;11.70;99.90
17154;DHT22;8692;52.164;7.558;2022-09-29T09:59:38;11.80;99.90
17154;DHT22;8692;52.164;7.558;2022-09-29T10:02:15;12.00;99.90
17154;DHT22;8692;52.164;7.558;2022-09-29T10:04:49;12.00;99.90
17154;DHT22;8692;52.164;7.558;2022-09-29T10:07:19;12.10;99.90
17154;DHT22;8692;52.164;7.558;2022-09-29T10:09:51;12.10;99.90
17154;DHT22;8692;52.164;7.558;2022-09-29T10:12:23;12.20;99.90
17154;DHT22;8692;52.164;7.558;2022-09-29T10:14:58;12.30;99.90
17154;DHT22;8692;52.164;7.558;2022-09-29T10:17:32;12.40;99.90
17154;DHT22;8692;52.164;7.558;2022-09-29T10:20:07;12.50;99.90
17154;DHT22;8692;52.164;7.558;2022-09-29T10:22:35;12.70;99.90
17154;DHT22;8692;52.164;7.558;2022-09-29T10:25:15;12.70;99.90
17154;DHT22;8692;52.164;7.558;2022-09-29T10:27:45;12.80;99.90
17154;DHT22;8692;52.164;7.558;2022-09-29T10:30:20;12.90;99.90
17154;DHT22;8692;52.164;7.558;2022-09-29T10:32:51;13.00;99.90
17154;DHT22;8692;52.164;7.558;2022-09-29T10:35:25;13.00;99.90
17154;DHT22;8692;52.164;7.558;2022-09-29T10:37:59;13.10;99.90
17154;DHT22;8692;52.164;7.558;2022-09-29T10:40:30;13.10;99.90
17154;DHT22;8692;52.164;7.558;2022-09-29T10:43:20;13.20;99.90
17154;DHT22;8692;52.164;7.558;2022-09-29T10:45:50;13.30;99.90
17154;DHT22;8692;52.164;7.558;2022-09-29T10:48:26;13.40;99.90
17154;DHT22;8692;52.164;7.558;2022-09-29T10:51:00;13.40;99.90
17154;DHT22;8692;52.164;7.558;2022-09-29T10:53:37;13.50;99.90
17154;DHT22;8692;52.164;7.558;2022-09-29T10:56:15;13.50;99.90
17154;DHT22;8692;52.164;7.558;2022-09-29T10:58:52;13.60;99.90
17154;DHT22;8692;52.164;7.558;2022-09-29T11:01:41;13.60;99.90
17154;DHT22;8692;52.164;7.558;2022-09-29T11:04:16;13.70;99.90
17154;DHT22;8692;52.164;7.558;2022-09-29T11:06:46;13.80;99.90
17154;DHT22;8692;52.164;7.558;2022-09-29T11:09:29;13.90;99.90
17154;DHT22;8692;52.164;7.558;2022-09-29T11:12:05;14.10;99.90
17154;DHT22;8692;52.164;7.558;2022-09-29T11:14:40;14.20;99.90
17154;DHT22;8692;52.164;7.558;2022-09-29T11:17:23;14.20;99.90
17154;DHT22;8692;52.164;7.558;2022-09-29T11:19:55;14.40;99.90
17154;DHT22;8692;52.164;7.558;2022-09-29T11:22:52;14.50;99.90
17154;DHT22;8692;52.164;7.558;2022-09-29T11:25:36;14.60;99.90
17154;DHT22;8692;52.164;7.558;2022-09-29T11:28:19;14.80;99.90
17154;DHT22;8692;52.164;7.558;2022-09-29T11:31:02;14.90;99.90
17154;DHT22;8692;52.164;7.558;2022-09-29T11:33:46;15.10;99.90
17154;DHT22;8692;52.164;7.558;2022-09-29T11:36:24;15.20;99.90
17154;DHT22;8692;52.164;7.558;2022-09-29T11:39:20;15.30;99.90
17154;DHT22;8692;52.164;7.558;2022-09-29T11:41:59;15.40;99.90
17154;DHT22;8692;52.164;7.558;2022-09-29T11:48:16;15.50;99.90
17154;DHT22;8692;52.164;7.558;2022-09-29T11:51:00;15.60;99.90
17154;DHT22;8692;52.164;7.558;2022-09-29T11:53:45;15.70;99.90
17154;DHT22;8692;52.164;7.558;2022-09-29T11:56:29;15.70;99.90
17154;DHT22;8692;52.164;7.558;2022-09-29T11:59:18;15.70;99.90
17154;DHT22;8692;52.164;7.558;2022-09-29T12:01:58;15.70;99.90
17154;DHT22;8692;52.164;7.558;2022-09-29T12:04:41;15.70;99.60
17154;DHT22;8692;52.164;7.558;2022-09-29T12:07:20;15.70;99.00
17154;DHT22;8692;52.164;7.558;2022-09-29T12:10:02;15.70;98.00
17154;DHT22;8692;52.164;7.558;2022-09-29T12:12:41;15.70;97.90
17154;DHT22;8692;52.164;7.558;2022-09-29T12:15:20;15.60;99.50
17154;DHT22;8692;52.164;7.558;2022-09-29T12:17:58;15.60;99.20
17154;DHT22;8692;52.164;7.558;2022-09-29T12:20:32;15.60;98.10
17154;DHT22;8692;52.164;7.558;2022-09-29T12:23:06;15.60;97.70
17154;DHT22;8692;52.164;7.558;2022-09-29T12:25:39;15.70;94.80
17154;DHT22;8692;52.164;7.558;2022-09-29T12:28:15;15.70;97.70
17154;DHT22;8692;52.164;7.558;2022-09-29T12:30:46;15.70;96.00
17154;DHT22;8692;52.164;7.558;2022-09-29T12:33:22;15.70;95.10
17154;DHT22;8692;52.164;7.558;2022-09-29T12:36:07;15.80;97.10
17154;DHT22;8692;52.164;7.558;2022-09-29T12:39:11;15.90;95.90
17154;DHT22;8692;52.164;7.558;2022-09-29T12:41:46;16.10;94.10
17154;DHT22;8692;52.164;7.558;2022-09-29T12:44:25;16.10;92.30
17154;DHT22;8692;52.164;7.558;2022-09-29T12:47:01;16.20;92.50
17154;DHT22;8692;52.164;7.558;2022-09-29T12:49:38;16.30;92.20
17154;DHT22;8692;52.164;7.558;2022-09-29T12:52:16;16.30;88.40
17154;DHT22;8692;52.164;7.558;2022-09-29T12:54:52;16.30;91.30
17154;DHT22;8692;52.164;7.558;2022-09-29T12:57:25;16.40;92.70
17154;DHT22;8692;52.164;7.558;2022-09-29T13:00:02;16.50;91.90
17154;DHT22;8692;52.164;7.558;2022-09-29T13:03:06;16.50;86.40
17154;DHT22;8692;52.164;7.558;2022-09-29T13:09:12;16.70;90.60
17154;DHT22;8692;52.164;7.558;2022-09-29T13:12:10;16.80;87.20
17154;DHT22;8692;52.164;7.558;2022-09-29T13:18:00;17.00;87.20
17154;DHT22;8692;52.164;7.558;2022-09-29T13:20:52;17.10;87.50
17154;DHT22;8692;52.164;7.558;2022-09-29T13:26:33;17.40;88.20
17154;DHT22;8692;52.164;7.558;2022-09-29T13:29:09;17.50;84.30
17154;DHT22;8692;52.164;7.558;2022-09-29T13:31:42;17.50;81.90
17154;DHT22;8692;52.164;7.558;2022-09-29T13:34:26;17.50;84.20
17154;DHT22;8692;52.164;7.558;2022-09-29T13:37:04;17.50;79.80
17154;DHT22;8692;52.164;7.558;2022-09-29T13:39:34;17.60;78.70
17154;DHT22;8692;52.164;7.558;2022-09-29T13:45:39;17.60;78.90
17154;DHT22;8692;52.164;7.558;2022-09-29T13:48:51;17.70;75.50
17154;DHT22;8692;52.164;7.558;2022-09-29T13:51:29;17.60;73.80
17154;DHT22;8692;52.164;7.558;2022-09-29T13:54:26;17.60;71.70
17154;DHT22;8692;52.164;7.558;2022-09-29T13:57:00;17.50;71.90
17154;DHT22;8692;52.164;7.558;2022-09-29T13:59:31;17.50;75.90
17154;DHT22;8692;52.164;7.558;2022-09-29T14:02:00;17.50;76.50
17154;DHT22;8692;52.164;7.558;2022-09-29T14:04:51;17.60;75.10
17154;DHT22;8692;52.164;7.558;2022-09-29T14:07:42;17.80;75.00
17154;DHT22;8692;52.164;7.558;2022-09-29T14:10:20;17.90;73.60
17154;DHT22;8692;52.164;7.558;2022-09-29T14:12:56;18.00;73.90
17154;DHT22;8692;52.164;7.558;2022-09-29T14:15:30;18.00;74.90
17154;DHT22;8692;52.164;7.558;2022-09-29T14:18:02;18.10;73.30
17154;DHT22;8692;52.164;7.558;2022-09-29T14:20:36;18.30;74.50
17154;DHT22;8692;52.164;7.558;2022-09-29T14:23:12;18.30;73.90
17154;DHT22;8692;52.164;7.558;2022-09-29T14:25:50;18.40;72.80
17154;DHT22;8692;52.164;7.558;2022-09-29T14:28:25;18.40;72.90
17154;DHT22;8692;52.164;7.558;2022-09-29T14:30:59;18.40;73.60
17154;DHT22;8692;52.164;7.558;2022-09-29T14:33:35;18.40;73.40
17154;DHT22;8692;52.164;7.558;2022-09-29T14:36:12;18.40;73.80
17154;DHT22;8692;52.164;7.558;2022-09-29T14:38:43;18.50;73.00
17154;DHT22;8692;52.164;7.558;2022-09-29T14:41:39;18.50;73.60
17154;DHT22;8692;52.164;7.558;2022-09-29T14:44:09;18.60;73.50
17154;DHT22;8692;52.164;7.558;2022-09-29T14:50:03;18.60;74.00
17154;DHT22;8692;52.164;7.558;2022-09-29T14:53:03;18.60;72.60
17154;DHT22;8692;52.164;7.558;2022-09-29T14:55:41;18.60;72.10
17154;DHT22;8692;52.164;7.558;2022-09-29T14:58:34;18.60;73.30
17154;DHT22;8692;52.164;7.558;2022-09-29T15:01:09;18.50;73.70
17154;DHT22;8692;52.164;7.558;2022-09-29T15:03:44;18.50;73.10
17154;DHT22;8692;52.164;7.558;2022-09-29T15:06:16;18.50;73.30
17154;DHT22;8692;52.164;7.558;2022-09-29T15:08:54;18.50;73.20
17154;DHT22;8692;52.164;7.558;2022-09-29T15:11:25;18.30;71.00
17154;DHT22;8692;52.164;7.558;2022-09-29T15:13:56;18.30;71.20
17154;DHT22;8692;52.164;7.558;2022-09-29T15:16:31;18.20;70.90
17154;DHT22;8692;52.164;7.558;2022-09-29T15:19:21;18.20;71.10
17154;DHT22;8692;52.164;7.558;2022-09-29T15:22:04;18.10;72.20
17154;DHT22;8692;52.164;7.558;2022-09-29T15:24:59;18.00;72.80
17154;DHT22;8692;52.164;7.558;2022-09-29T15:27:36;17.90;72.40
17154;DHT22;8692;52.164;7.558;2022-09-29T15:30:12;17.70;70.80
17154;DHT22;8692;52.164;7.558;2022-09-29T15:32:45;17.60;70.70
17154;DHT22;8692;52.164;7.558;2022-09-29T15:35:19;17.50;71.90
17154;DHT22;8692;52.164;7.558;2022-09-29T15:38:15;17.50;74.00
17154;DHT22;8692;52.164;7.558;2022-09-29T15:40:52;17.40;75.70
17154;DHT22;8692;52.164;7.558;2022-09-29T15:43:24;17.30;75.10
17154;DHT22;8692;52.164;7.558;2022-09-29T15:45:55;17.10;75.80
17154;DHT22;8692;52.164;7.558;2022-09-29T15:48:31;17.10;76.40
17154;DHT22;8692;52.164;7.558;2022-09-29T15:50:59;17.00;75.50
17154;DHT22;8692;52.164;7.558;2022-09-29T15:53:27;16.80;74.20
17154;DHT22;8692;52.164;7.558;2022-09-29T15:56:00;16.80;74.40
17154;DHT22;8692;52.164;7.558;2022-09-29T15:58:40;16.60;73.80
17154;DHT22;8692;52.164;7.558;2022-09-29T16:01:13;16.60;75.40
17154;DHT22;8692;52.164;7.558;2022-09-29T16:03:48;16.50;76.30
17154;DHT22;8692;52.164;7.558;2022-09-29T16:06:26;16.50;76.30
17154;DHT22;8692;52.164;7.558;2022-09-29T16:08:59;16.40;76.70
17154;DHT22;8692;52.164;7.558;2022-09-29T16:11:33;16.40;76.70
17154;DHT22;8692;52.164;7.558;2022-09-29T16:14:07;16.40;79.00
17154;DHT22;8692;52.164;7.558;2022-09-29T16:16:39;16.30;79.50
17154;DHT22;8692;52.164;7.558;2022-09-29T16:19:12;16.20;81.20
17154;DHT22;8692;52.164;7.558;2022-09-29T16:21:49;16.20;82.20
17154;DHT22;8692;52.164;7.558;2022-09-29T16:24:20;16.00;83.30
17154;DHT22;8692;52.164;7.558;2022-09-29T16:26:51;16.00;84.20
17154;DHT22;8692;52.164;7.558;2022-09-29T16:29:29;15.90;85.30
17154;DHT22;8692;52.164;7.558;2022-09-29T16:32:34;15.80;87.00
17154;DHT22;8692;52.164;7.558;2022-09-29T16:35:37;15.70;88.00
17154;DHT22;8692;52.164;7.558;2022-09-29T16:38:18;15.60;89.40
17154;DHT22;8692;52.164;7.558;2022-09-29T16:40:48;15.50;90.20
17154;DHT22;8692;52.164;7.558;2022-09-29T16:43:24;15.40;90.60
17154;DHT22;8692;52.164;7.558;2022-09-29T16:45:56;15.40;91.00
17154;DHT22;8692;52.164;7.558;2022-09-29T16:48:27;15.30;90.50
17154;DHT22;8692;52.164;7.558;2022-09-29T16:50:59;15.20;90.60
17154;DHT22;8692;52.164;7.558;2022-09-29T16:53:34;15.10;91.10
17154;DHT22;8692;52.164;7.558;2022-09-29T16:56:05;15.10;91.30
17154;DHT22;8692;52.164;7.558;2022-09-29T16:58:36;15.00;91.50
17154;DHT22;8692;52.164;7.558;2022-09-29T17:01:05;14.90;91.90
17154;DHT22;8692;52.164;7.558;2022-09-29T17:03:37;14.80;93.00
17154;DHT22;8692;52.164;7.558;2022-09-29T17:06:07;14.80;94.00
17154;DHT22;8692;52.164;7.558;2022-09-29T17:08:36;14.70;94.90